createdAt,value
2019-01-24T00:01:55.619Z,91.00
2019-01-24T00:06:56.981Z,91.00
2019-01-24T00:11:58.344Z,91.00
2019-01-24T00:16:59.865Z,91.00
2019-01-24T00:22:01.272Z,91.00
2019-01-24T00:27:02.715Z,91.00
2019-01-24T00:32:04.113Z,91.00
2019-01-24T00:37:05.438Z,91.00
2019-01-24T00:42:06.736Z,91.00
2019-01-24T00:47:08.009Z,90.90
2019-01-24T00:52:09.352Z,90.90
2019-01-24T00:57:10.734Z,90.90
2019-01-24T01:02:12.182Z,90.80
2019-01-24T01:07:13.464Z,90.90
2019-01-24T01:12:14.755Z,90.80
2019-01-24T01:17:16.041Z,90.90
2019-01-24T01:22:17.348Z,90.90
2019-01-24T01:27:18.626Z,90.90
2019-01-24T01:32:19.978Z,91.00
2019-01-24T01:37:21.258Z,90.90
2019-01-24T01:42:22.593Z,90.90
2019-01-24T01:47:23.920Z,90.90
2019-01-24T01:52:25.214Z,91.00
2019-01-24T01:57:26.684Z,91.00
2019-01-24T02:02:28.052Z,91.00
2019-01-24T02:07:29.377Z,91.10
2019-01-24T02:12:30.687Z,91.20
2019-01-24T02:17:32.047Z,91.10
2019-01-24T02:22:33.368Z,91.10
2019-01-24T02:27:34.771Z,91.10
2019-01-24T02:32:36.083Z,91.10
2019-01-24T02:37:37.363Z,91.10
2019-01-24T02:42:38.642Z,91.10
2019-01-24T02:47:39.990Z,91.10
2019-01-24T02:52:41.397Z,91.10
2019-01-24T02:57:42.720Z,91.10
2019-01-24T03:02:44.066Z,91.00
2019-01-24T03:07:45.493Z,90.80
2019-01-24T03:12:46.996Z,90.70
2019-01-24T03:23:08.568Z,90.60
2019-01-24T03:28:09.885Z,90.40
2019-01-24T03:33:11.252Z,90.40
2019-01-24T03:38:12.591Z,90.50
2019-01-24T03:43:14.037Z,90.30
2019-01-24T03:48:15.356Z,90.20
2019-01-24T03:53:16.656Z,90.30
2019-01-24T03:58:17.973Z,90.20
2019-01-24T04:03:19.287Z,90.20
2019-01-24T04:08:20.665Z,90.20
2019-01-24T04:13:22.058Z,90.10
2019-01-24T04:18:23.410Z,89.80
2019-01-24T04:23:24.757Z,90.30
2019-01-24T04:28:28.046Z,89.70
2019-01-24T04:33:29.356Z,89.70
2019-01-24T04:38:30.685Z,89.00
2019-01-24T04:43:32.005Z,89.70
2019-01-24T04:48:33.306Z,89.00
2019-01-24T04:53:34.632Z,89.00
2019-01-24T04:58:35.970Z,88.80
2019-01-24T05:03:37.292Z,88.70
2019-01-24T05:08:38.664Z,88.60
2019-01-24T05:13:40.031Z,88.60
2019-01-24T05:18:41.319Z,88.70
2019-01-24T05:23:42.869Z,88.90
2019-01-24T05:28:44.209Z,87.80
2019-01-24T05:33:45.550Z,88.10
2019-01-24T05:38:46.885Z,87.90
2019-01-24T05:43:48.406Z,88.40
2019-01-24T05:48:49.691Z,88.40
2019-01-24T05:53:51.032Z,88.50
2019-01-24T05:58:52.396Z,87.90
2019-01-24T06:03:53.762Z,88.40
2019-01-24T06:08:55.177Z,88.60
2019-01-24T06:13:56.458Z,88.70
2019-01-24T06:18:57.824Z,88.70
2019-01-24T06:23:59.139Z,88.70
2019-01-24T06:29:02.925Z,88.60
2019-01-24T06:34:03.742Z,88.80
2019-01-24T06:39:06.569Z,88.90
2019-01-24T06:44:07.857Z,88.80
2019-01-24T06:49:09.198Z,88.60
2019-01-24T06:54:10.480Z,88.50
2019-01-24T06:59:11.961Z,88.00
2019-01-24T07:04:13.242Z,88.50
2019-01-24T07:09:14.649Z,88.00
2019-01-24T07:14:15.970Z,88.00
2019-01-24T07:19:17.319Z,88.30
2019-01-24T07:24:18.604Z,88.30
2019-01-24T07:29:19.948Z,88.10
2019-01-24T07:34:21.343Z,88.30
2019-01-24T07:39:22.631Z,87.70
2019-01-24T07:44:23.980Z,88.10
2019-01-24T07:49:25.243Z,88.10
2019-01-24T07:54:26.570Z,88.10
2019-01-24T07:59:27.901Z,88.30
2019-01-24T08:04:29.361Z,88.30
2019-01-24T08:09:30.687Z,88.40
2019-01-24T08:14:31.993Z,88.20
2019-01-24T08:19:33.295Z,88.20
2019-01-24T08:24:34.759Z,88.20
2019-01-24T08:29:36.088Z,88.20
2019-01-24T08:34:37.417Z,87.90
2019-01-24T08:39:38.852Z,88.00
2019-01-24T08:44:40.151Z,87.60
2019-01-24T08:49:41.567Z,87.90
2019-01-24T08:54:42.943Z,87.70
2019-01-24T08:59:44.274Z,88.00
2019-01-24T09:04:45.569Z,87.80
2019-01-24T09:09:46.938Z,87.40
2019-01-24T09:14:48.316Z,87.80
2019-01-24T09:19:49.595Z,87.60
2019-01-24T09:24:50.918Z,87.60
2019-01-24T09:29:52.210Z,87.40
2019-01-24T09:34:53.537Z,87.50
2019-01-24T09:39:54.870Z,87.50
2019-01-24T09:44:56.316Z,87.60
2019-01-24T09:49:57.604Z,87.50
2019-01-24T09:54:58.926Z,87.20
2019-01-24T10:00:00.367Z,87.10
2019-01-24T10:05:02.365Z,87.00
2019-01-24T10:10:12.014Z,87.00
2019-01-24T10:15:16.460Z,86.70
2019-01-24T10:20:24.576Z,86.60
2019-01-24T10:25:32.207Z,86.70
2019-01-24T10:30:33.545Z,86.50
2019-01-24T10:35:34.899Z,86.00
2019-01-24T10:40:36.210Z,86.40
2019-01-24T10:45:37.544Z,86.30
2019-01-24T10:50:38.835Z,86.20
2019-01-24T10:55:40.250Z,85.70
2019-01-24T11:00:41.913Z,86.00
2019-01-24T11:05:43.342Z,85.80
2019-01-24T11:10:44.670Z,85.60
2019-01-24T11:15:45.973Z,85.30
2019-01-24T11:20:47.660Z,85.50
2019-01-24T11:25:54.534Z,85.30
2019-01-24T11:30:55.830Z,85.30
2019-01-24T11:35:57.138Z,84.60
2019-01-24T11:40:58.441Z,85.00
2019-01-24T11:45:59.799Z,85.00
2019-01-24T11:51:01.139Z,85.10
2019-01-24T11:56:02.433Z,84.50
2019-01-24T12:01:03.910Z,84.80
2019-01-24T12:06:05.592Z,85.00
2019-01-24T12:11:07.048Z,84.50
2019-01-24T12:16:08.550Z,84.50
2019-01-24T12:21:09.976Z,84.50
2019-01-24T12:26:11.399Z,84.40
2019-01-24T12:31:12.733Z,84.40
2019-01-24T12:36:14.068Z,84.20
2019-01-24T12:41:15.521Z,84.30
2019-01-24T12:46:16.936Z,83.80
2019-01-24T12:51:18.269Z,84.00
2019-01-24T12:56:19.749Z,83.90
2019-01-24T13:01:21.218Z,84.00
2019-01-24T13:06:22.548Z,84.10
2019-01-24T13:11:23.827Z,83.90
2019-01-24T13:16:25.131Z,84.00
2019-01-24T13:21:26.440Z,84.00
2019-01-24T13:26:27.727Z,83.80
2019-01-24T13:31:29.046Z,83.90
2019-01-24T13:36:30.478Z,84.10
2019-01-24T13:41:31.762Z,84.20
2019-01-24T13:46:33.103Z,84.30
2019-01-24T13:51:34.882Z,84.20
2019-01-24T13:56:36.246Z,84.20
2019-01-24T14:01:37.561Z,84.20
2019-01-24T14:06:38.879Z,84.20
2019-01-24T14:11:40.322Z,84.00
2019-01-24T14:16:41.972Z,84.00
2019-01-24T14:21:43.276Z,84.30
2019-01-24T14:26:44.597Z,84.50
2019-01-24T14:31:45.888Z,84.40
2019-01-24T14:36:48.921Z,84.50
2019-01-24T14:41:58.138Z,84.30
2019-01-24T14:46:59.486Z,84.40
2019-01-24T14:52:00.897Z,84.70
2019-01-24T14:57:02.209Z,84.70
2019-01-24T15:02:03.803Z,84.80
2019-01-24T15:07:05.264Z,84.90
2019-01-24T15:12:06.634Z,85.00
2019-01-24T15:17:08.353Z,85.10
2019-01-24T15:22:09.728Z,85.20
2019-01-24T15:27:11.886Z,85.10
2019-01-24T15:32:13.171Z,85.10
2019-01-24T15:37:16.215Z,85.20
2019-01-24T15:42:17.621Z,85.40
2019-01-24T15:47:20.424Z,85.60
2019-01-24T15:52:21.757Z,85.80
2019-01-24T15:57:23.967Z,85.60
2019-01-24T16:02:25.268Z,85.90
2019-01-24T16:07:26.672Z,86.00
2019-01-24T16:12:27.963Z,86.30
2019-01-24T16:17:29.297Z,86.20
2019-01-24T16:22:30.594Z,86.40
2019-01-24T16:27:32.091Z,86.50
2019-01-24T16:32:33.542Z,86.40
2019-01-24T16:37:35.095Z,86.60
2019-01-24T16:42:36.678Z,86.70
2019-01-24T16:47:38.163Z,86.80
2019-01-24T16:52:39.486Z,86.90
2019-01-24T16:57:40.826Z,86.90
2019-01-24T17:02:42.140Z,87.10
2019-01-24T17:07:43.511Z,87.10
2019-01-24T17:12:44.870Z,87.20
2019-01-24T17:17:46.203Z,87.10
2019-01-24T17:22:47.874Z,87.40
2019-01-24T17:27:49.255Z,87.40
2019-01-24T17:32:50.683Z,87.60
2019-01-24T17:37:52.137Z,87.40
2019-01-24T17:42:53.443Z,87.70
2019-01-24T17:47:54.769Z,87.70
2019-01-24T17:52:56.076Z,87.70
2019-01-24T17:57:57.408Z,87.80
2019-01-24T18:02:58.701Z,87.80
2019-01-24T18:08:00.059Z,87.90
2019-01-24T18:13:01.398Z,87.90
2019-01-24T18:18:08.448Z,88.00
2019-01-24T18:23:10.159Z,88.10
2019-01-24T18:28:11.472Z,88.00
2019-01-24T18:33:12.786Z,88.10
2019-01-24T18:38:14.187Z,88.30
2019-01-24T18:43:17.431Z,88.20
2019-01-24T18:48:18.971Z,88.10
2019-01-24T18:53:20.288Z,88.40
2019-01-24T18:58:21.683Z,88.30
2019-01-24T19:03:23.117Z,88.40
2019-01-24T19:08:24.457Z,88.40
2019-01-24T19:13:25.819Z,88.50
2019-01-24T19:18:27.142Z,88.50
2019-01-24T19:23:28.449Z,88.60
2019-01-24T19:28:29.761Z,88.60
2019-01-24T19:33:31.113Z,88.60
2019-01-24T19:38:32.405Z,89.30
2019-01-24T19:43:33.832Z,88.70
2019-01-24T19:48:35.134Z,88.80
2019-01-24T19:53:36.536Z,88.90
2019-01-24T19:58:38.014Z,88.90
2019-01-24T20:03:39.322Z,88.30
2019-01-24T20:08:40.659Z,89.10
2019-01-24T20:13:42.898Z,89.00
2019-01-24T20:18:44.314Z,89.00
2019-01-24T20:23:46.474Z,89.20
2019-01-24T20:28:47.773Z,89.20
2019-01-24T20:33:49.188Z,89.40
2019-01-24T20:38:50.884Z,89.40
2019-01-24T20:43:52.435Z,89.50
2019-01-24T20:48:53.782Z,89.50
2019-01-24T20:53:55.219Z,89.50
2019-01-24T20:58:56.643Z,89.60
2019-01-24T21:03:58.040Z,89.60
2019-01-24T21:08:59.438Z,89.70
2019-01-24T21:14:00.889Z,89.80
2019-01-24T21:19:02.359Z,89.90
2019-01-24T21:24:03.778Z,89.90
2019-01-24T21:29:06.068Z,89.80
2019-01-24T21:34:07.414Z,89.80
2019-01-24T21:39:08.769Z,89.80
2019-01-24T21:44:10.184Z,89.70
2019-01-24T21:49:11.551Z,89.80
2019-01-24T21:54:12.918Z,89.90
2019-01-24T21:59:14.279Z,89.90
2019-01-24T22:04:15.763Z,89.90
2019-01-24T22:09:17.097Z,90.00
2019-01-24T22:14:18.643Z,90.00
2019-01-24T22:19:20.060Z,90.00
2019-01-24T22:24:21.417Z,90.00
2019-01-24T22:29:22.773Z,90.00
2019-01-24T22:34:24.092Z,90.00
2019-01-24T22:39:25.537Z,90.00
2019-01-24T22:44:26.891Z,90.00
2019-01-24T22:49:28.230Z,90.10
2019-01-24T22:54:29.538Z,90.10
2019-01-24T22:59:30.841Z,90.10
2019-01-24T23:04:32.341Z,90.10
2019-01-24T23:09:33.856Z,90.10
2019-01-24T23:14:35.272Z,90.10
2019-01-24T23:19:36.695Z,90.10
2019-01-24T23:24:38.022Z,90.10
2019-01-24T23:29:39.370Z,90.10
2019-01-24T23:34:40.770Z,90.20
2019-01-24T23:40:00.803Z,90.20
2019-01-24T23:45:03.480Z,90.20
2019-01-24T23:50:06.729Z,90.20
2019-01-24T23:55:08.081Z,90.20
